createdAt,value
2018-12-13T00:01:56.517Z,86.70
2018-12-13T00:04:24.900Z,86.73
2018-12-13T00:06:53.294Z,86.69
2018-12-13T00:09:21.729Z,86.32
2018-12-13T00:11:50.098Z,86.52
2018-12-13T00:14:18.596Z,86.24
2018-12-13T00:16:47.016Z,86.67
2018-12-13T00:19:15.713Z,86.40
2018-12-13T00:21:44.368Z,86.26
2018-12-13T00:24:13.003Z,86.72
2018-12-13T00:26:41.408Z,86.64
2018-12-13T00:29:09.813Z,86.83
2018-12-13T00:31:38.283Z,86.61
2018-12-13T00:34:06.720Z,86.37
2018-12-13T00:36:39.671Z,86.61
2018-12-13T00:39:07.377Z,86.73
2018-12-13T00:41:35.753Z,86.53
2018-12-13T00:44:04.173Z,86.53
2018-12-13T00:46:32.590Z,86.23
2018-12-13T00:49:00.970Z,86.67
2018-12-13T00:51:29.496Z,86.64
2018-12-13T00:53:57.902Z,86.65
2018-12-13T00:56:26.274Z,86.42
2018-12-13T00:58:54.703Z,86.28
2018-12-13T01:01:23.137Z,86.55
2018-12-13T01:03:51.659Z,86.24
2018-12-13T01:06:20.045Z,86.14
2018-12-13T01:08:48.502Z,86.68
2018-12-13T01:11:23.656Z,86.16
2018-12-13T01:13:52.077Z,86.29
2018-12-13T01:16:24.537Z,86.55
2018-12-13T01:18:53.089Z,86.43
2018-12-13T01:21:21.503Z,86.48
2018-12-13T01:23:50.188Z,86.52
2018-12-13T01:26:18.712Z,86.61
2018-12-13T01:28:47.118Z,86.24
2018-12-13T01:31:15.555Z,86.45
2018-12-13T01:33:43.980Z,86.41
2018-12-13T01:36:12.910Z,86.62
2018-12-13T01:38:41.329Z,86.15
2018-12-13T01:41:09.785Z,86.52
2018-12-13T01:43:38.203Z,86.17
2018-12-13T01:46:06.624Z,86.47
2018-12-13T01:48:35.046Z,86.65
2018-12-13T01:51:03.429Z,86.53
2018-12-13T01:53:31.818Z,86.65
2018-12-13T01:56:00.263Z,86.47
2018-12-13T01:58:28.729Z,86.28
2018-12-13T02:00:57.109Z,86.39
2018-12-13T02:03:25.560Z,86.44
2018-12-13T02:05:53.967Z,86.10
2018-12-13T02:08:22.348Z,86.71
2018-12-13T02:10:50.769Z,86.29
2018-12-13T02:13:19.184Z,86.78
2018-12-13T02:15:47.653Z,86.30
2018-12-13T02:18:16.104Z,86.46
2018-12-13T02:20:44.601Z,86.85
2018-12-13T02:23:13.049Z,86.23
2018-12-13T02:25:41.635Z,86.78
2018-12-13T02:28:10.147Z,86.50
2018-12-13T02:30:38.671Z,86.48
2018-12-13T02:33:07.089Z,86.70
2018-12-13T02:35:35.472Z,86.63
2018-12-13T02:38:03.980Z,86.58
2018-12-13T02:40:32.440Z,86.16
2018-12-13T02:43:00.829Z,86.46
2018-12-13T02:45:29.214Z,86.43
2018-12-13T02:47:57.832Z,86.20
2018-12-13T02:50:26.260Z,86.70
2018-12-13T02:52:54.634Z,86.43
2018-12-13T02:55:23.030Z,86.65
2018-12-13T02:57:51.429Z,86.45
2018-12-13T03:00:19.824Z,86.48
2018-12-13T03:02:48.284Z,86.59
2018-12-13T03:05:16.713Z,86.64
2018-12-13T03:07:45.120Z,86.15
2018-12-13T03:10:13.526Z,86.36
2018-12-13T03:12:41.916Z,86.37
2018-12-13T03:15:10.517Z,86.18
2018-12-13T03:17:38.961Z,86.29
2018-12-13T03:20:07.632Z,86.57
2018-12-13T03:22:36.103Z,86.23
2018-12-13T03:25:04.889Z,86.31
2018-12-13T03:27:33.605Z,86.17
2018-12-13T03:30:02.369Z,86.19
2018-12-13T03:32:30.918Z,86.20
2018-12-13T03:34:59.294Z,86.26
2018-12-13T03:37:27.678Z,86.30
2018-12-13T03:39:56.091Z,86.30
2018-12-13T03:42:24.509Z,86.29
2018-12-13T03:44:53.004Z,86.42
2018-12-13T03:47:21.697Z,86.51
2018-12-13T03:49:50.080Z,86.66
2018-12-13T03:52:18.585Z,86.47
2018-12-13T03:54:46.998Z,86.36
2018-12-13T03:57:15.724Z,86.46
2018-12-13T03:59:44.126Z,86.40
2018-12-13T04:02:12.591Z,86.41
2018-12-13T04:04:41.018Z,86.93
2018-12-13T04:07:09.417Z,86.38
2018-12-13T04:09:37.847Z,86.45
2018-12-13T04:12:06.257Z,86.81
2018-12-13T04:14:34.650Z,86.65
2018-12-13T04:17:03.288Z,86.51
2018-12-13T04:19:31.771Z,86.59
2018-12-13T04:22:01.667Z,86.62
2018-12-13T04:24:30.686Z,86.62
2018-12-13T04:26:59.067Z,86.69
2018-12-13T04:29:27.623Z,86.26
2018-12-13T04:31:56.217Z,86.69
2018-12-13T04:34:24.599Z,86.45
2018-12-13T04:36:52.992Z,86.62
2018-12-13T04:39:21.405Z,86.25
2018-12-13T04:41:49.865Z,86.09
2018-12-13T04:44:18.257Z,86.55
2018-12-13T04:46:46.682Z,86.24
2018-12-13T04:49:15.120Z,86.52
2018-12-13T04:51:43.640Z,86.54
2018-12-13T04:54:12.041Z,86.28
2018-12-13T04:56:40.689Z,86.50
2018-12-13T04:59:09.216Z,86.75
2018-12-13T05:01:37.628Z,86.47
2018-12-13T05:04:05.996Z,86.70
2018-12-13T05:06:34.378Z,86.71
2018-12-13T05:09:04.543Z,86.74
2018-12-13T05:11:32.977Z,86.54
2018-12-13T05:14:01.344Z,86.73
2018-12-13T05:16:29.781Z,86.92
2018-12-13T05:18:58.169Z,86.63
2018-12-13T05:21:26.575Z,86.79
2018-12-13T05:23:55.054Z,86.54
2018-12-13T05:26:23.464Z,86.84
2018-12-13T05:28:52.038Z,86.83
2018-12-13T05:31:20.624Z,86.83
2018-12-13T05:33:49.433Z,86.52
2018-12-13T05:36:17.814Z,86.53
2018-12-13T05:38:46.529Z,86.90
2018-12-13T05:41:15.037Z,86.87
2018-12-13T05:43:45.432Z,86.97
2018-12-13T05:46:13.866Z,87.06
2018-12-13T05:48:42.344Z,86.91
2018-12-13T05:51:10.722Z,86.66
2018-12-13T05:53:39.145Z,86.95
2018-12-13T05:56:07.662Z,87.10
2018-12-13T05:58:36.044Z,87.03
2018-12-13T06:01:04.473Z,87.16
2018-12-13T06:03:32.888Z,86.70
2018-12-13T06:06:01.558Z,87.20
2018-12-13T06:08:29.971Z,86.75
2018-12-13T06:10:58.437Z,87.03
2018-12-13T06:13:26.932Z,86.68
2018-12-13T06:15:55.421Z,86.92
2018-12-13T06:18:23.804Z,86.76
2018-12-13T06:20:52.383Z,87.12
2018-12-13T06:23:20.792Z,87.09
2018-12-13T06:25:50.509Z,86.67
2018-12-13T06:28:19.418Z,86.62
2018-12-13T06:30:47.864Z,87.20
2018-12-13T06:33:16.419Z,87.26
2018-12-13T06:35:45.067Z,87.29
2018-12-13T06:38:13.548Z,86.74
2018-12-13T06:40:42.000Z,87.06
2018-12-13T06:43:10.433Z,86.71
2018-12-13T06:45:38.935Z,86.64
2018-12-13T06:48:07.324Z,87.11
2018-12-13T06:50:35.704Z,87.10
2018-12-13T06:53:04.126Z,87.15
2018-12-13T06:55:32.648Z,86.85
2018-12-13T06:58:01.172Z,87.08
2018-12-13T07:00:29.587Z,87.03
2018-12-13T07:02:57.997Z,86.81
2018-12-13T07:05:26.395Z,87.15
2018-12-13T07:07:54.904Z,87.21
2018-12-13T07:10:23.341Z,86.85
2018-12-13T07:12:51.830Z,87.21
2018-12-13T07:15:20.635Z,86.87
2018-12-13T07:17:49.016Z,86.82
2018-12-13T07:20:17.429Z,87.25
2018-12-13T07:22:45.874Z,87.17
2018-12-13T07:25:14.294Z,86.89
2018-12-13T07:27:42.856Z,87.30
2018-12-13T07:30:11.529Z,87.17
2018-12-13T07:32:40.117Z,87.27
2018-12-13T07:35:08.774Z,86.99
2018-12-13T07:37:37.328Z,86.85
2018-12-13T07:40:07.202Z,87.01
2018-12-13T07:42:35.620Z,86.94
2018-12-13T07:45:04.697Z,86.91
2018-12-13T07:47:33.195Z,87.05
2018-12-13T07:50:01.577Z,86.96
2018-12-13T07:52:30.190Z,87.07
2018-12-13T07:54:58.582Z,87.32
2018-12-13T07:57:27.089Z,87.02
2018-12-13T07:59:55.485Z,87.37
2018-12-13T08:02:24.239Z,86.86
2018-12-13T08:04:52.616Z,86.93
2018-12-13T08:07:21.560Z,87.40
2018-12-13T08:09:49.937Z,86.93
2018-12-13T08:12:18.920Z,86.84
2018-12-13T08:14:47.361Z,86.96
2018-12-13T08:17:15.778Z,87.01
2018-12-13T08:19:44.465Z,87.25
2018-12-13T08:22:12.883Z,87.16
2018-12-13T08:24:41.405Z,87.00
2018-12-13T08:27:09.772Z,87.09
2018-12-13T08:29:38.189Z,87.18
2018-12-13T08:32:06.559Z,87.38
2018-12-13T08:34:34.931Z,87.16
2018-12-13T08:37:03.542Z,87.21
2018-12-13T08:39:32.027Z,87.01
2018-12-13T08:42:00.536Z,87.42
2018-12-13T08:44:28.999Z,86.85
2018-12-13T08:46:57.460Z,87.17
2018-12-13T08:49:25.848Z,87.23
2018-12-13T08:51:54.270Z,87.23
2018-12-13T08:54:22.637Z,86.99
2018-12-13T08:56:51.228Z,86.85
2018-12-13T08:59:19.653Z,86.91
2018-12-13T09:01:48.092Z,86.93
2018-12-13T09:04:16.518Z,87.21
2018-12-13T09:06:44.941Z,86.84
2018-12-13T09:09:13.350Z,86.84
2018-12-13T09:11:41.829Z,87.37
2018-12-13T09:14:10.310Z,87.24
2018-12-13T09:16:38.704Z,87.08
2018-12-13T09:19:07.075Z,86.99
2018-12-13T09:21:35.813Z,86.75
2018-12-13T09:24:04.293Z,86.83
2018-12-13T09:26:32.657Z,87.11
2018-12-13T09:29:01.082Z,87.32
2018-12-13T09:31:29.492Z,86.81
2018-12-13T09:33:57.857Z,86.83
2018-12-13T09:36:26.301Z,86.73
2018-12-13T09:38:54.853Z,87.03
2018-12-13T09:41:23.819Z,86.93
2018-12-13T09:43:52.204Z,86.93
2018-12-13T09:46:20.686Z,86.66
2018-12-13T09:48:49.710Z,86.57
2018-12-13T09:51:18.239Z,86.46
2018-12-13T09:53:46.660Z,86.47
2018-12-13T09:56:15.042Z,86.76
2018-12-13T09:58:43.463Z,86.79
2018-12-13T10:01:11.845Z,86.46
2018-12-13T10:03:40.269Z,86.31
2018-12-13T10:06:08.715Z,86.72
2018-12-13T10:08:37.532Z,86.25
2018-12-13T10:11:06.030Z,86.68
2018-12-13T10:13:34.543Z,86.37
2018-12-13T10:16:03.014Z,85.90
2018-12-13T10:18:31.880Z,86.49
2018-12-13T10:21:00.469Z,86.17
2018-12-13T10:23:29.577Z,85.84
2018-12-13T10:25:59.646Z,86.13
2018-12-13T10:28:28.315Z,86.13
2018-12-13T10:30:56.802Z,85.52
2018-12-13T10:33:25.189Z,85.40
2018-12-13T10:35:54.176Z,85.48
2018-12-13T10:38:22.944Z,85.12
2018-12-13T10:40:52.629Z,85.14
2018-12-13T10:43:24.636Z,84.65
2018-12-13T10:45:53.368Z,84.74
2018-12-13T10:48:21.782Z,84.86
2018-12-13T10:50:50.869Z,84.46
2018-12-13T10:53:19.262Z,84.38
2018-12-13T10:55:48.701Z,84.29
2018-12-13T10:58:17.116Z,84.16
2018-12-13T11:00:51.792Z,84.81
2018-12-13T11:03:26.355Z,84.41
2018-12-13T11:05:54.905Z,84.05
2018-12-13T11:08:23.281Z,84.40
2018-12-13T11:10:51.693Z,84.29
2018-12-13T11:13:20.257Z,83.98
2018-12-13T11:15:48.758Z,84.38
2018-12-13T11:18:17.176Z,84.49
2018-12-13T11:20:46.474Z,84.52
2018-12-13T11:23:16.730Z,84.32
2018-12-13T11:25:45.295Z,84.37
2018-12-13T11:28:24.961Z,84.36
2018-12-13T11:30:53.374Z,84.38
2018-12-13T11:33:21.749Z,84.12
2018-12-13T11:35:50.873Z,84.43
2018-12-13T11:38:19.396Z,84.04
2018-12-13T11:40:47.908Z,84.40
2018-12-13T11:43:16.472Z,84.12
2018-12-13T11:45:45.439Z,84.19
2018-12-13T11:48:15.274Z,84.13
2018-12-13T11:50:43.679Z,84.08
2018-12-13T11:53:12.060Z,84.32
2018-12-13T11:55:41.492Z,83.97
2018-12-13T11:58:12.072Z,84.12
2018-12-13T12:00:40.546Z,84.03
2018-12-13T12:03:09.011Z,83.72
2018-12-13T12:05:37.412Z,83.66
2018-12-13T12:08:05.896Z,84.09
2018-12-13T12:10:34.496Z,84.10
2018-12-13T12:13:03.039Z,83.86
2018-12-13T12:15:31.607Z,83.72
2018-12-13T12:18:00.289Z,84.00
2018-12-13T12:20:29.061Z,84.10
2018-12-13T12:22:58.181Z,83.38
2018-12-13T12:25:26.688Z,83.53
2018-12-13T12:27:55.092Z,83.66
2018-12-13T12:30:23.488Z,83.63
2018-12-13T12:32:51.976Z,83.60
2018-12-13T12:35:20.427Z,83.05
2018-12-13T12:37:48.824Z,83.37
2018-12-13T12:40:17.217Z,83.29
2018-12-13T12:42:45.735Z,83.51
2018-12-13T12:45:14.377Z,82.99
2018-12-13T12:47:42.945Z,83.47
2018-12-13T12:50:11.480Z,83.21
2018-12-13T12:52:41.028Z,83.07
2018-12-13T12:55:09.444Z,83.12
2018-12-13T12:57:38.497Z,83.13
2018-12-13T13:00:08.785Z,82.59
2018-12-13T13:02:37.557Z,82.90
2018-12-13T13:05:06.617Z,82.93
2018-12-13T13:07:35.016Z,82.57
2018-12-13T13:10:03.977Z,82.86
2018-12-13T13:12:32.410Z,82.86
2018-12-13T13:15:01.070Z,82.39
2018-12-13T13:17:29.432Z,82.42
2018-12-13T13:19:58.161Z,82.70
2018-12-13T13:22:26.536Z,82.14
2018-12-13T13:24:54.942Z,82.01
2018-12-13T13:27:26.208Z,82.38
2018-12-13T13:29:55.556Z,81.79
2018-12-13T13:32:23.986Z,81.98
2018-12-13T13:34:52.361Z,81.87
2018-12-13T13:37:20.800Z,82.30
2018-12-13T13:39:50.032Z,81.66
2018-12-13T13:42:19.377Z,81.78
2018-12-13T13:44:50.384Z,81.82
2018-12-13T13:47:19.245Z,81.62
2018-12-13T13:49:47.797Z,81.96
2018-12-13T13:52:16.337Z,81.58
2018-12-13T13:54:44.812Z,81.42
2018-12-13T13:57:13.202Z,81.82
2018-12-13T13:59:41.624Z,81.91
2018-12-13T14:02:09.992Z,81.91
2018-12-13T14:04:38.369Z,81.38
2018-12-13T14:07:06.845Z,81.79
2018-12-13T14:09:38.093Z,81.59
2018-12-13T14:12:06.633Z,81.71
2018-12-13T14:14:35.277Z,82.12
2018-12-13T14:17:04.257Z,81.55
2018-12-13T14:19:32.659Z,81.56
2018-12-13T14:22:01.057Z,81.38
2018-12-13T14:24:29.712Z,81.41
2018-12-13T14:26:58.393Z,81.52
2018-12-13T14:29:26.781Z,81.41
2018-12-13T14:31:55.166Z,81.73
2018-12-13T14:34:23.611Z,81.77
2018-12-13T14:36:52.177Z,81.88
2018-12-13T14:39:20.785Z,81.36
2018-12-13T14:41:49.326Z,81.53
2018-12-13T14:44:17.717Z,81.90
2018-12-13T14:46:46.118Z,81.77
2018-12-13T14:49:16.237Z,81.95
2018-12-13T14:51:45.275Z,81.81
2018-12-13T14:57:00.455Z,81.82
2018-12-13T14:59:28.860Z,81.93
2018-12-13T15:01:57.525Z,82.11
2018-12-13T15:04:26.409Z,82.31
2018-12-13T15:06:55.429Z,81.97
2018-12-13T15:09:30.380Z,82.06
2018-12-13T15:11:58.748Z,82.27
2018-12-13T15:14:27.116Z,81.98
2018-12-13T15:16:55.525Z,82.22
2018-12-13T15:19:23.966Z,81.88
2018-12-13T15:21:52.385Z,82.04
2018-12-13T15:24:20.924Z,82.49
2018-12-13T15:26:49.417Z,82.55
2018-12-13T15:29:17.941Z,82.09
2018-12-13T15:31:46.362Z,82.37
2018-12-13T15:34:14.809Z,82.47
2018-12-13T15:36:43.252Z,82.62
2018-12-13T15:39:12.028Z,82.27
2018-12-13T15:41:40.470Z,82.48
2018-12-13T15:44:09.148Z,82.39
2018-12-13T15:46:37.555Z,82.43
2018-12-13T15:49:06.092Z,82.22
2018-12-13T15:51:34.683Z,82.13
2018-12-13T15:54:03.467Z,82.74
2018-12-13T15:56:31.849Z,82.31
2018-12-13T15:59:01.881Z,82.61
2018-12-13T16:01:30.324Z,82.72
2018-12-13T16:03:58.715Z,82.26
2018-12-13T16:06:27.090Z,82.62
2018-12-13T16:08:55.518Z,82.41
2018-12-13T16:11:23.918Z,82.62
2018-12-13T16:13:52.296Z,82.39
2018-12-13T16:16:20.734Z,82.15
2018-12-13T16:18:49.778Z,82.66
2018-12-13T16:21:18.157Z,82.14
2018-12-13T16:23:47.118Z,82.17
2018-12-13T16:26:15.847Z,82.67
2018-12-13T16:28:44.295Z,82.42
2018-12-13T16:31:12.741Z,82.49
2018-12-13T16:33:41.119Z,82.84
2018-12-13T16:36:09.500Z,82.31
2018-12-13T16:38:38.040Z,82.77
2018-12-13T16:41:06.448Z,82.74
2018-12-13T16:43:35.009Z,82.78
2018-12-13T16:46:03.622Z,82.49
2018-12-13T16:48:32.000Z,82.85
2018-12-13T16:51:00.490Z,82.55
2018-12-13T16:53:29.392Z,82.72
2018-12-13T16:55:58.141Z,82.46
2018-12-13T16:58:26.637Z,82.75
2018-12-13T17:00:55.121Z,82.47
2018-12-13T17:03:36.649Z,82.30
2018-12-13T17:06:05.546Z,82.24
2018-12-13T17:08:34.096Z,82.57
2018-12-13T17:11:03.772Z,82.33
2018-12-13T17:13:32.589Z,82.43
2018-12-13T17:16:01.084Z,82.16
2018-12-13T17:18:29.485Z,82.31
2018-12-13T17:20:57.969Z,82.66
2018-12-13T17:23:26.899Z,82.54
2018-12-13T17:25:55.364Z,82.50
2018-12-13T17:28:23.892Z,82.60
2018-12-13T17:30:52.417Z,82.11
2018-12-13T17:33:20.782Z,82.10
2018-12-13T17:35:49.400Z,82.07
2018-12-13T17:38:17.824Z,82.35
2018-12-13T17:40:46.215Z,82.43
2018-12-13T17:43:14.749Z,82.30
2018-12-13T17:45:43.291Z,82.12
2018-12-13T17:48:11.886Z,82.18
2018-12-13T17:50:40.906Z,82.29
2018-12-13T17:53:09.339Z,82.44
2018-12-13T17:55:37.914Z,82.12
2018-12-13T17:58:07.457Z,82.43
2018-12-13T18:00:42.623Z,82.56
2018-12-13T18:03:11.097Z,82.70
2018-12-13T18:05:39.465Z,82.81
2018-12-13T18:08:07.824Z,82.76
2018-12-13T18:10:36.279Z,82.75
2018-12-13T18:13:04.699Z,82.46
2018-12-13T18:15:33.269Z,82.48
2018-12-13T18:18:01.780Z,82.67
2018-12-13T18:20:30.266Z,82.31
2018-12-13T18:22:59.017Z,82.73
2018-12-13T18:25:27.420Z,82.67
2018-12-13T18:27:55.825Z,82.20
2018-12-13T18:30:24.223Z,82.33
2018-12-13T18:32:52.632Z,82.65
2018-12-13T18:35:21.645Z,82.63
2018-12-13T18:37:50.208Z,82.12
2018-12-13T18:40:18.743Z,82.23
2018-12-13T18:42:47.959Z,82.43
2018-12-13T18:45:16.787Z,82.30
2018-12-13T18:47:45.225Z,82.43
2018-12-13T18:50:13.825Z,82.67
2018-12-13T18:52:42.209Z,82.35
2018-12-13T18:55:10.690Z,82.34
2018-12-13T18:57:39.296Z,82.15
2018-12-13T19:00:08.140Z,82.26
2018-12-13T19:02:40.105Z,82.01
2018-12-13T19:05:08.611Z,82.43
2018-12-13T19:07:37.136Z,82.06
2018-12-13T19:10:06.171Z,82.38
2018-12-13T19:12:34.685Z,82.05
2018-12-13T19:15:03.708Z,82.33
2018-12-13T19:17:32.149Z,82.09
2018-12-13T19:20:00.557Z,81.94
2018-12-13T19:22:29.171Z,82.18
2018-12-13T19:24:58.504Z,81.75
2018-12-13T19:27:26.939Z,81.92
2018-12-13T19:29:55.356Z,81.89
2018-12-13T19:32:23.820Z,82.07
2018-12-13T19:34:52.201Z,82.12
2018-12-13T19:37:20.661Z,81.94
2018-12-13T19:39:49.565Z,82.02
2018-12-13T19:42:17.985Z,81.98
2018-12-13T19:44:46.362Z,82.01
2018-12-13T19:47:15.288Z,82.54
2018-12-13T19:49:43.716Z,82.02
2018-12-13T19:52:12.118Z,82.60
2018-12-13T19:54:40.624Z,82.56
2018-12-13T19:57:09.031Z,82.43
2018-12-13T19:59:37.570Z,82.54
2018-12-13T20:02:06.510Z,82.19
2018-12-13T20:04:35.189Z,82.52
2018-12-13T20:07:03.676Z,82.47
2018-12-13T20:09:32.128Z,82.35
2018-12-13T20:12:00.505Z,82.54
2018-12-13T20:14:28.869Z,82.26
2018-12-13T20:16:57.343Z,82.26
2018-12-13T20:19:25.724Z,82.43
2018-12-13T20:21:54.154Z,82.36
2018-12-13T20:24:22.589Z,82.63
2018-12-13T20:26:51.312Z,82.64
2018-12-13T20:29:20.534Z,82.50
2018-12-13T20:31:48.966Z,82.71
2018-12-13T20:34:17.368Z,82.88
2018-12-13T20:36:46.072Z,82.40
2018-12-13T20:39:14.512Z,82.46
2018-12-13T20:41:43.570Z,82.68
2018-12-13T20:44:11.968Z,83.00
2018-12-13T20:46:40.388Z,83.07
2018-12-13T20:49:08.783Z,82.64
2018-12-13T20:51:37.180Z,82.74
2018-12-13T20:54:05.701Z,83.21
2018-12-13T20:56:34.103Z,83.18
2018-12-13T20:59:02.515Z,83.12
2018-12-13T21:01:31.264Z,83.63
2018-12-13T21:03:59.793Z,83.12
2018-12-13T21:06:29.157Z,83.27
2018-12-13T21:08:57.731Z,83.14
2018-12-13T21:11:26.133Z,83.34
2018-12-13T21:13:54.537Z,83.66
2018-12-13T21:16:23.137Z,83.80
2018-12-13T21:18:52.191Z,83.94
2018-12-13T21:21:20.633Z,83.54
2018-12-13T21:23:49.217Z,83.40
2018-12-13T21:26:17.611Z,83.52
2018-12-13T21:28:45.986Z,83.60
2018-12-13T21:31:14.445Z,83.83
2018-12-13T21:33:42.837Z,83.90
2018-12-13T21:36:11.323Z,84.03
2018-12-13T21:38:39.735Z,84.03
2018-12-13T21:41:13.520Z,83.73
2018-12-13T21:43:38.568Z,84.07
2018-12-13T21:46:06.979Z,83.92
2018-12-13T21:48:35.376Z,83.66
2018-12-13T21:51:03.777Z,83.76
2018-12-13T21:53:32.232Z,84.06
2018-12-13T21:56:00.673Z,83.95
2018-12-13T21:58:29.641Z,83.68
2018-12-13T22:00:58.055Z,83.82
2018-12-13T22:03:26.696Z,83.89
2018-12-13T22:05:55.478Z,83.78
2018-12-13T22:08:23.912Z,84.03
2018-12-13T22:10:52.374Z,84.13
2018-12-13T22:13:20.773Z,83.73
2018-12-13T22:15:49.292Z,83.66
2018-12-13T22:18:17.801Z,83.92
2018-12-13T22:20:46.280Z,83.90
2018-12-13T22:23:14.817Z,83.86
2018-12-13T22:25:43.221Z,84.04
2018-12-13T22:28:11.620Z,83.70
2018-12-13T22:30:40.624Z,83.62
2018-12-13T22:33:09.041Z,83.97
2018-12-13T22:35:37.436Z,83.74
2018-12-13T22:38:05.904Z,83.89
2018-12-13T22:40:34.929Z,83.74
2018-12-13T22:43:03.309Z,84.05
2018-12-13T22:45:31.796Z,83.76
2018-12-13T22:48:00.179Z,83.75
2018-12-13T22:50:28.684Z,84.04
2018-12-13T22:52:57.131Z,83.96
2018-12-13T22:55:25.702Z,83.74
2018-12-13T22:57:54.114Z,83.81
2018-12-13T23:00:22.542Z,83.45
2018-12-13T23:02:50.924Z,83.42
2018-12-13T23:05:19.857Z,83.82
2018-12-13T23:07:48.309Z,84.00
2018-12-13T23:10:16.715Z,83.86
2018-12-13T23:12:45.150Z,83.85
2018-12-13T23:15:13.724Z,83.64
2018-12-13T23:17:42.214Z,83.75
2018-12-13T23:20:10.787Z,83.73
2018-12-13T23:22:39.275Z,83.55
2018-12-13T23:25:07.924Z,83.60
2018-12-13T23:27:36.460Z,83.24
2018-12-13T23:30:06.001Z,83.33
2018-12-13T23:32:34.612Z,83.76
2018-12-13T23:35:03.154Z,83.67
2018-12-13T23:37:31.808Z,83.38
2018-12-13T23:40:00.256Z,83.58
2018-12-13T23:42:28.658Z,83.32
2018-12-13T23:44:57.445Z,83.65
2018-12-13T23:47:25.860Z,83.37
2018-12-13T23:49:54.232Z,83.37
2018-12-13T23:52:22.678Z,83.29
2018-12-13T23:54:51.348Z,83.30
2018-12-13T23:57:19.780Z,83.66
2018-12-13T23:59:48.208Z,83.12
